• Join FlightAware (Why Join?)
  • Login
  • US Flag 
01:31AM EDT


 

Airport Tracker/Info


-or-


 

Live Flight TrackerFlight Track Log ✈ N8854L ✈ 27-Nov-2013 ✈ KBYG - KCOD

Flight Track Log - Related Links

Times and Time Zones

All times are in EST time to prevent confusion due to time zone crossing. See the N8854L flight status page for this flight to view local times or setup timezone preferences in your user account.

Time Position Orientation Groundspeed Altitude Reporting Facility
EST Latitude Longitude Course Direction KTS MPH feet Rate Location/Type
04:00PM 44.1733 -107.0831 213° Southwest 79 91 11,200  Level Salt Lake Center
04:01PM 44.1792 -107.1125 285° West 79 91 11,200  Level Salt Lake Center
04:02PM 44.1889 -107.1461 292° West 86 99 11,300 -120 Climbing Salt Lake Center
04:03PM 44.1975 -107.1792 290° West 89 102 11,000 -180 Descending Salt Lake Center
04:04PM 44.2056 -107.2147 288° West 92 106 11,000 -60 Level Salt Lake Center
04:05PM 44.2117 -107.2544 282° West 91 105 10,900 -120 Descending Salt Lake Center
04:06PM 44.3975 -106.9584 213° Southwest  Level Estimated
04:06PM 44.2208 -107.2900 290° West 93 107 10,800  Level Salt Lake Center
04:07PM 44.2292 -107.3247 289° West 94 108 10,400 -360 Descending Salt Lake Center
04:08PM 44.2372 -107.3650 286° West 99 114 10,100 -240 Descending Salt Lake Center
04:09PM 44.2458 -107.4058 286° West 104 120 10,000 -240 Descending Salt Lake Center
04:10PM 44.2528 -107.4458 284° West 106 122 9,700 -360 Descending Salt Lake Center
04:11PM 44.2603 -107.4883 284° West 108 124 9,300 -420 Descending Salt Lake Center
04:12PM 44.2714 -107.5328 289° West 114 131 8,900 -420 Descending Salt Lake Center
04:13PM 44.2825 -107.5839 287° West 116 133 8,500 -240 Descending Salt Lake Center
04:14PM 44.2942 -107.6289 290° West 119 137 8,500  Level Salt Lake Center
04:15PM 44.3025 -107.6703 286° West 116 133 8,500  Level Salt Lake Center
04:16PM 44.3067 -107.7125 278° West 113 130 8,500  Level Salt Lake Center
04:17PM 44.3131 -107.7547 282° West 111 128 8,500  Level Salt Lake Center
04:19PM 44.3239 -107.7942 291° West 110 127 8,500  Level Salt Lake Center
04:20PM 44.3344 -107.8339 290° West 110 127 8,500  Level Salt Lake Center
04:21PM 44.3450 -107.8842 286° West 111 128 8,500  Level Salt Lake Center
04:22PM 44.3531 -107.9261 285° West 111 128 8,500  Level Salt Lake Center
04:23PM 44.3622 -107.9678 287° West 112 129 8,600 60 Climbing Salt Lake Center
04:24PM 44.3703 -108.0086 285° West 111 128 8,700  Climbing Salt Lake Center
04:25PM 44.3750 -108.0483 279° West 108 124 8,700  Level Salt Lake Center
04:26PM 44.3803 -108.0903 280° West 108 124 8,700  Level Salt Lake Center
04:27PM 44.3861 -108.1311 281° West 108 124 8,700 -60 Level Salt Lake Center
04:28PM 44.3928 -108.1736 282° West 109 125 8,600 -60 Descending Salt Lake Center
04:29PM 44.4014 -108.2231 284° West 110 127 8,600  Level Salt Lake Center
04:30PM 44.4081 -108.2633 283° West 108 124 8,600 -60 Level Salt Lake Center
04:31PM 44.4147 -108.3050 283° West 108 124 8,500 -120 Descending Salt Lake Center
04:32PM 44.4214 -108.3489 282° West 111 128 8,400 -120 Descending Salt Lake Center
04:33PM 44.4278 -108.3947 281° West 115 132 8,300 -120 Descending Salt Lake Center